sensor_id;sensor_type;location;lat;lon;timestamp;P1;durP1;ratioP1;P2;durP2;ratioP2
52272;SDS011;38227;50.942;4.016;2022-10-16T00:00:05;1.85;;;1.30;;
52272;SDS011;38227;50.942;4.016;2022-10-16T00:02:38;4.05;;;1.15;;
52272;SDS011;38227;50.942;4.016;2022-10-16T00:05:09;4.47;;;1.27;;
52272;SDS011;38227;50.942;4.016;2022-10-16T00:07:39;2.85;;;1.25;;
52272;SDS011;38227;50.942;4.016;2022-10-16T00:10:10;3.10;;;0.93;;
52272;SDS011;38227;50.942;4.016;2022-10-16T00:12:37;1.37;;;1.10;;
52272;SDS011;38227;50.942;4.016;2022-10-16T00:15:06;2.45;;;1.20;;
52272;SDS011;38227;50.942;4.016;2022-10-16T00:17:36;3.00;;;1.27;;
52272;SDS011;38227;50.942;4.016;2022-10-16T00:20:05;2.35;;;1.20;;
52272;SDS011;38227;50.942;4.016;2022-10-16T00:22:33;3.25;;;1.33;;
52272;SDS011;38227;50.942;4.016;2022-10-16T00:25:03;2.28;;;1.17;;
52272;SDS011;38227;50.942;4.016;2022-10-16T00:27:42;2.25;;;1.20;;
52272;SDS011;38227;50.942;4.016;2022-10-16T00:30:12;1.98;;;1.27;;
52272;SDS011;38227;50.942;4.016;2022-10-16T00:32:43;2.50;;;1.30;;
52272;SDS011;38227;50.942;4.016;2022-10-16T00:35:12;3.08;;;1.25;;
52272;SDS011;38227;50.942;4.016;2022-10-16T00:37:43;3.53;;;1.20;;
52272;SDS011;38227;50.942;4.016;2022-10-16T00:40:11;3.80;;;1.20;;
52272;SDS011;38227;50.942;4.016;2022-10-16T00:42:40;3.83;;;1.12;;
52272;SDS011;38227;50.942;4.016;2022-10-16T00:45:12;5.10;;;1.40;;
52272;SDS011;38227;50.942;4.016;2022-10-16T00:47:45;3.45;;;1.40;;
52272;SDS011;38227;50.942;4.016;2022-10-16T00:50:24;3.00;;;1.30;;
52272;SDS011;38227;50.942;4.016;2022-10-16T00:53:16;3.92;;;1.65;;
52272;SDS011;38227;50.942;4.016;2022-10-16T00:55:48;4.45;;;1.40;;
52272;SDS011;38227;50.942;4.016;2022-10-16T00:58:18;4.70;;;1.30;;
52272;SDS011;38227;50.942;4.016;2022-10-16T01:00:51;3.30;;;1.37;;
52272;SDS011;38227;50.942;4.016;2022-10-16T01:03:31;2.87;;;1.35;;
52272;SDS011;38227;50.942;4.016;2022-10-16T01:09:34;2.28;;;1.23;;
52272;SDS011;38227;50.942;4.016;2022-10-16T01:15:30;3.53;;;1.30;;
52272;SDS011;38227;50.942;4.016;2022-10-16T01:21:13;2.22;;;1.17;;
52272;SDS011;38227;50.942;4.016;2022-10-16T01:29:56;2.75;;;1.40;;
52272;SDS011;38227;50.942;4.016;2022-10-16T01:32:47;6.45;;;1.60;;
52272;SDS011;38227;50.942;4.016;2022-10-16T01:41:21;5.25;;;1.55;;
52272;SDS011;38227;50.942;4.016;2022-10-16T01:44:05;4.47;;;1.48;;
52272;SDS011;38227;50.942;4.016;2022-10-16T01:46:40;2.62;;;1.70;;
52272;SDS011;38227;50.942;4.016;2022-10-16T01:49:11;4.70;;;1.60;;
52272;SDS011;38227;50.942;4.016;2022-10-16T01:51:43;4.90;;;1.60;;
52272;SDS011;38227;50.942;4.016;2022-10-16T01:54:19;4.72;;;1.80;;
52272;SDS011;38227;50.942;4.016;2022-10-16T01:56:50;2.15;;;1.50;;
52272;SDS011;38227;50.942;4.016;2022-10-16T01:59:21;5.03;;;1.50;;
52272;SDS011;38227;50.942;4.016;2022-10-16T02:01:56;2.58;;;1.85;;
52272;SDS011;38227;50.942;4.016;2022-10-16T02:04:53;4.22;;;1.92;;
52272;SDS011;38227;50.942;4.016;2022-10-16T02:07:34;3.58;;;1.80;;
52272;SDS011;38227;50.942;4.016;2022-10-16T02:10:05;3.87;;;1.52;;
52272;SDS011;38227;50.942;4.016;2022-10-16T02:12:39;2.95;;;1.60;;
52272;SDS011;38227;50.942;4.016;2022-10-16T02:15:15;3.35;;;2.05;;
52272;SDS011;38227;50.942;4.016;2022-10-16T02:17:44;4.80;;;1.87;;
52272;SDS011;38227;50.942;4.016;2022-10-16T02:20:16;4.00;;;2.03;;
52272;SDS011;38227;50.942;4.016;2022-10-16T02:22:46;6.82;;;2.42;;
52272;SDS011;38227;50.942;4.016;2022-10-16T02:25:19;4.97;;;1.98;;
52272;SDS011;38227;50.942;4.016;2022-10-16T02:30:56;3.55;;;1.80;;
52272;SDS011;38227;50.942;4.016;2022-10-16T02:33:31;3.37;;;1.90;;
52272;SDS011;38227;50.942;4.016;2022-10-16T02:36:01;6.20;;;2.30;;
52272;SDS011;38227;50.942;4.016;2022-10-16T02:38:32;4.35;;;2.10;;
52272;SDS011;38227;50.942;4.016;2022-10-16T02:41:02;5.75;;;2.37;;
52272;SDS011;38227;50.942;4.016;2022-10-16T02:43:32;5.25;;;2.10;;
52272;SDS011;38227;50.942;4.016;2022-10-16T02:46:03;5.85;;;2.20;;
52272;SDS011;38227;50.942;4.016;2022-10-16T02:48:41;5.80;;;2.15;;
52272;SDS011;38227;50.942;4.016;2022-10-16T02:51:10;3.12;;;2.10;;
52272;SDS011;38227;50.942;4.016;2022-10-16T02:53:41;7.75;;;2.12;;
52272;SDS011;38227;50.942;4.016;2022-10-16T02:56:09;5.45;;;2.40;;
52272;SDS011;38227;50.942;4.016;2022-10-16T02:58:38;8.90;;;2.20;;
52272;SDS011;38227;50.942;4.016;2022-10-16T03:01:08;4.57;;;2.30;;
52272;SDS011;38227;50.942;4.016;2022-10-16T03:03:38;4.60;;;2.22;;
52272;SDS011;38227;50.942;4.016;2022-10-16T03:06:09;6.10;;;2.25;;
52272;SDS011;38227;50.942;4.016;2022-10-16T03:08:38;6.20;;;2.20;;
52272;SDS011;38227;50.942;4.016;2022-10-16T03:11:07;4.57;;;2.25;;
52272;SDS011;38227;50.942;4.016;2022-10-16T03:13:38;5.32;;;2.30;;
52272;SDS011;38227;50.942;4.016;2022-10-16T03:16:06;5.05;;;2.20;;
52272;SDS011;38227;50.942;4.016;2022-10-16T03:18:39;4.03;;;2.22;;
52272;SDS011;38227;50.942;4.016;2022-10-16T03:21:10;5.87;;;2.22;;
52272;SDS011;38227;50.942;4.016;2022-10-16T03:23:39;3.00;;;2.33;;
52272;SDS011;38227;50.942;4.016;2022-10-16T03:26:15;3.55;;;2.10;;
52272;SDS011;38227;50.942;4.016;2022-10-16T03:28:45;4.45;;;2.42;;
52272;SDS011;38227;50.942;4.016;2022-10-16T03:31:16;5.15;;;2.30;;
52272;SDS011;38227;50.942;4.016;2022-10-16T03:33:46;4.65;;;2.72;;
52272;SDS011;38227;50.942;4.016;2022-10-16T03:36:24;5.00;;;2.25;;
52272;SDS011;38227;50.942;4.016;2022-10-16T03:38:55;3.05;;;2.12;;
52272;SDS011;38227;50.942;4.016;2022-10-16T03:41:24;4.37;;;2.47;;
52272;SDS011;38227;50.942;4.016;2022-10-16T03:43:55;5.37;;;2.10;;
52272;SDS011;38227;50.942;4.016;2022-10-16T03:46:24;6.07;;;2.20;;
52272;SDS011;38227;50.942;4.016;2022-10-16T03:49:00;4.45;;;2.42;;
52272;SDS011;38227;50.942;4.016;2022-10-16T03:51:30;6.35;;;2.55;;
52272;SDS011;38227;50.942;4.016;2022-10-16T03:53:58;4.43;;;2.08;;
52272;SDS011;38227;50.942;4.016;2022-10-16T03:56:27;4.68;;;2.37;;
52272;SDS011;38227;50.942;4.016;2022-10-16T03:58:58;4.72;;;2.33;;
52272;SDS011;38227;50.942;4.016;2022-10-16T04:01:27;6.85;;;2.60;;
52272;SDS011;38227;50.942;4.016;2022-10-16T04:03:57;5.70;;;2.75;;
52272;SDS011;38227;50.942;4.016;2022-10-16T04:06:26;6.05;;;2.40;;
52272;SDS011;38227;50.942;4.016;2022-10-16T04:08:59;5.55;;;2.47;;
52272;SDS011;38227;50.942;4.016;2022-10-16T04:11:31;6.03;;;2.60;;
52272;SDS011;38227;50.942;4.016;2022-10-16T04:14:08;4.72;;;2.80;;
52272;SDS011;38227;50.942;4.016;2022-10-16T04:16:37;6.45;;;2.83;;
52272;SDS011;38227;50.942;4.016;2022-10-16T04:19:08;6.05;;;2.70;;
52272;SDS011;38227;50.942;4.016;2022-10-16T04:21:39;8.93;;;2.95;;
52272;SDS011;38227;50.942;4.016;2022-10-16T04:24:10;5.95;;;2.53;;
52272;SDS011;38227;50.942;4.016;2022-10-16T04:26:39;4.00;;;2.45;;
52272;SDS011;38227;50.942;4.016;2022-10-16T04:29:16;8.93;;;3.12;;
52272;SDS011;38227;50.942;4.016;2022-10-16T04:31:46;5.53;;;2.80;;
52272;SDS011;38227;50.942;4.016;2022-10-16T04:34:19;5.45;;;2.70;;
52272;SDS011;38227;50.942;4.016;2022-10-16T04:36:51;5.85;;;3.08;;
52272;SDS011;38227;50.942;4.016;2022-10-16T04:39:21;7.00;;;2.80;;
52272;SDS011;38227;50.942;4.016;2022-10-16T04:41:50;4.85;;;2.58;;
52272;SDS011;38227;50.942;4.016;2022-10-16T04:44:21;7.25;;;3.20;;
52272;SDS011;38227;50.942;4.016;2022-10-16T04:46:52;5.90;;;2.80;;
52272;SDS011;38227;50.942;4.016;2022-10-16T04:49:21;7.10;;;2.92;;
52272;SDS011;38227;50.942;4.016;2022-10-16T04:51:53;7.55;;;2.97;;
52272;SDS011;38227;50.942;4.016;2022-10-16T04:54:25;6.00;;;2.85;;
52272;SDS011;38227;50.942;4.016;2022-10-16T04:56:54;5.18;;;2.92;;
52272;SDS011;38227;50.942;4.016;2022-10-16T04:59:25;5.12;;;3.08;;
52272;SDS011;38227;50.942;4.016;2022-10-16T05:01:54;8.55;;;2.87;;
52272;SDS011;38227;50.942;4.016;2022-10-16T05:04:31;5.47;;;2.78;;
52272;SDS011;38227;50.942;4.016;2022-10-16T05:07:01;5.25;;;2.70;;
52272;SDS011;38227;50.942;4.016;2022-10-16T05:09:38;8.10;;;3.12;;
52272;SDS011;38227;50.942;4.016;2022-10-16T05:12:07;7.50;;;2.60;;
52272;SDS011;38227;50.942;4.016;2022-10-16T05:14:38;7.47;;;2.62;;
52272;SDS011;38227;50.942;4.016;2022-10-16T05:17:07;6.22;;;3.05;;
52272;SDS011;38227;50.942;4.016;2022-10-16T05:19:39;5.40;;;2.95;;
52272;SDS011;38227;50.942;4.016;2022-10-16T05:22:08;8.50;;;3.00;;
52272;SDS011;38227;50.942;4.016;2022-10-16T05:24:39;5.50;;;3.10;;
52272;SDS011;38227;50.942;4.016;2022-10-16T05:27:08;4.20;;;2.80;;
52272;SDS011;38227;50.942;4.016;2022-10-16T05:29:44;8.30;;;3.15;;
52272;SDS011;38227;50.942;4.016;2022-10-16T05:32:13;7.57;;;3.17;;
52272;SDS011;38227;50.942;4.016;2022-10-16T05:34:45;6.90;;;3.10;;
52272;SDS011;38227;50.942;4.016;2022-10-16T05:37:14;6.75;;;3.10;;
52272;SDS011;38227;50.942;4.016;2022-10-16T05:39:50;8.50;;;2.85;;
52272;SDS011;38227;50.942;4.016;2022-10-16T05:42:18;5.30;;;2.67;;
52272;SDS011;38227;50.942;4.016;2022-10-16T05:44:47;7.87;;;3.00;;
52272;SDS011;38227;50.942;4.016;2022-10-16T05:47:24;7.93;;;3.00;;
52272;SDS011;38227;50.942;4.016;2022-10-16T05:49:53;7.57;;;2.90;;
52272;SDS011;38227;50.942;4.016;2022-10-16T05:52:23;8.30;;;2.87;;
52272;SDS011;38227;50.942;4.016;2022-10-16T05:54:53;6.18;;;2.70;;
52272;SDS011;38227;50.942;4.016;2022-10-16T05:57:30;9.10;;;2.85;;
52272;SDS011;38227;50.942;4.016;2022-10-16T06:00:00;8.85;;;3.10;;
52272;SDS011;38227;50.942;4.016;2022-10-16T06:02:37;11.82;;;3.22;;
52272;SDS011;38227;50.942;4.016;2022-10-16T06:05:07;6.50;;;3.37;;
52272;SDS011;38227;50.942;4.016;2022-10-16T06:07:37;6.57;;;3.12;;
52272;SDS011;38227;50.942;4.016;2022-10-16T06:10:05;4.75;;;3.12;;
52272;SDS011;38227;50.942;4.016;2022-10-16T06:12:35;6.90;;;3.10;;
52272;SDS011;38227;50.942;4.016;2022-10-16T06:15:05;5.97;;;3.20;;
52272;SDS011;38227;50.942;4.016;2022-10-16T06:17:36;6.05;;;3.22;;
52272;SDS011;38227;50.942;4.016;2022-10-16T06:20:05;8.80;;;3.42;;
52272;SDS011;38227;50.942;4.016;2022-10-16T06:22:35;8.35;;;3.10;;
52272;SDS011;38227;50.942;4.016;2022-10-16T06:25:03;5.53;;;2.97;;
52272;SDS011;38227;50.942;4.016;2022-10-16T06:27:33;7.87;;;3.30;;
52272;SDS011;38227;50.942;4.016;2022-10-16T06:30:03;8.23;;;3.35;;
52272;SDS011;38227;50.942;4.016;2022-10-16T06:32:44;7.72;;;2.92;;
52272;SDS011;38227;50.942;4.016;2022-10-16T06:35:17;7.12;;;2.80;;
52272;SDS011;38227;50.942;4.016;2022-10-16T06:37:52;7.20;;;3.00;;
52272;SDS011;38227;50.942;4.016;2022-10-16T06:40:31;7.50;;;3.12;;
52272;SDS011;38227;50.942;4.016;2022-10-16T06:43:11;7.82;;;3.08;;
52272;SDS011;38227;50.942;4.016;2022-10-16T06:45:55;8.65;;;3.10;;
52272;SDS011;38227;50.942;4.016;2022-10-16T06:48:26;12.90;;;3.35;;
52272;SDS011;38227;50.942;4.016;2022-10-16T06:51:03;10.25;;;3.08;;
52272;SDS011;38227;50.942;4.016;2022-10-16T06:53:35;7.28;;;3.00;;
52272;SDS011;38227;50.942;4.016;2022-10-16T06:56:10;8.50;;;3.03;;
52272;SDS011;38227;50.942;4.016;2022-10-16T06:58:55;9.82;;;3.30;;
52272;SDS011;38227;50.942;4.016;2022-10-16T07:01:34;8.55;;;3.05;;
52272;SDS011;38227;50.942;4.016;2022-10-16T07:04:04;7.70;;;3.00;;
52272;SDS011;38227;50.942;4.016;2022-10-16T07:06:34;7.93;;;2.95;;
52272;SDS011;38227;50.942;4.016;2022-10-16T07:09:06;5.45;;;2.70;;
52272;SDS011;38227;50.942;4.016;2022-10-16T07:11:36;10.13;;;3.10;;
52272;SDS011;38227;50.942;4.016;2022-10-16T07:16:44;4.37;;;2.28;;
52272;SDS011;38227;50.942;4.016;2022-10-16T07:19:14;6.15;;;2.58;;
52272;SDS011;38227;50.942;4.016;2022-10-16T07:21:42;5.90;;;2.08;;
52272;SDS011;38227;50.942;4.016;2022-10-16T07:24:15;5.18;;;2.15;;
52272;SDS011;38227;50.942;4.016;2022-10-16T07:26:43;4.55;;;1.92;;
52272;SDS011;38227;50.942;4.016;2022-10-16T07:29:16;6.72;;;1.80;;
52272;SDS011;38227;50.942;4.016;2022-10-16T07:31:45;8.25;;;1.80;;
52272;SDS011;38227;50.942;4.016;2022-10-16T07:34:15;4.95;;;1.70;;
52272;SDS011;38227;50.942;4.016;2022-10-16T07:36:47;3.45;;;1.83;;
52272;SDS011;38227;50.942;4.016;2022-10-16T07:39:16;5.25;;;1.70;;
52272;SDS011;38227;50.942;4.016;2022-10-16T07:41:45;5.82;;;1.67;;
52272;SDS011;38227;50.942;4.016;2022-10-16T07:44:15;4.30;;;1.58;;
52272;SDS011;38227;50.942;4.016;2022-10-16T07:46:45;4.25;;;1.92;;
52272;SDS011;38227;50.942;4.016;2022-10-16T07:49:15;5.68;;;2.00;;
52272;SDS011;38227;50.942;4.016;2022-10-16T07:51:45;5.60;;;1.85;;
52272;SDS011;38227;50.942;4.016;2022-10-16T07:54:16;4.15;;;2.00;;
52272;SDS011;38227;50.942;4.016;2022-10-16T07:56:44;7.90;;;2.05;;
52272;SDS011;38227;50.942;4.016;2022-10-16T07:59:14;4.57;;;1.90;;
52272;SDS011;38227;50.942;4.016;2022-10-16T08:01:46;4.90;;;1.90;;
52272;SDS011;38227;50.942;4.016;2022-10-16T08:04:18;7.18;;;2.12;;
52272;SDS011;38227;50.942;4.016;2022-10-16T08:06:54;3.03;;;1.73;;
52272;SDS011;38227;50.942;4.016;2022-10-16T08:09:23;4.50;;;1.80;;
52272;SDS011;38227;50.942;4.016;2022-10-16T08:11:52;6.30;;;1.60;;
52272;SDS011;38227;50.942;4.016;2022-10-16T08:14:24;8.63;;;2.05;;
52272;SDS011;38227;50.942;4.016;2022-10-16T08:16:53;5.90;;;1.65;;
52272;SDS011;38227;50.942;4.016;2022-10-16T08:19:29;5.60;;;1.80;;
52272;SDS011;38227;50.942;4.016;2022-10-16T08:21:59;7.03;;;1.52;;
52272;SDS011;38227;50.942;4.016;2022-10-16T08:24:28;4.97;;;1.80;;
52272;SDS011;38227;50.942;4.016;2022-10-16T08:26:59;4.55;;;1.58;;
52272;SDS011;38227;50.942;4.016;2022-10-16T08:29:28;6.62;;;1.90;;
52272;SDS011;38227;50.942;4.016;2022-10-16T08:32:01;5.57;;;1.40;;
52272;SDS011;38227;50.942;4.016;2022-10-16T08:34:33;5.05;;;2.03;;
52272;SDS011;38227;50.942;4.016;2022-10-16T08:37:03;8.10;;;1.77;;
52272;SDS011;38227;50.942;4.016;2022-10-16T08:39:34;5.65;;;1.80;;
52272;SDS011;38227;50.942;4.016;2022-10-16T08:42:22;4.43;;;1.70;;
52272;SDS011;38227;50.942;4.016;2022-10-16T08:48:54;7.55;;;1.65;;
52272;SDS011;38227;50.942;4.016;2022-10-16T08:51:33;7.07;;;1.83;;
52272;SDS011;38227;50.942;4.016;2022-10-16T08:54:09;6.80;;;1.70;;
52272;SDS011;38227;50.942;4.016;2022-10-16T08:56:47;5.68;;;1.70;;
52272;SDS011;38227;50.942;4.016;2022-10-16T08:59:16;4.72;;;1.33;;
52272;SDS011;38227;50.942;4.016;2022-10-16T09:01:46;5.28;;;1.70;;
52272;SDS011;38227;50.942;4.016;2022-10-16T09:07:32;3.92;;;1.70;;
52272;SDS011;38227;50.942;4.016;2022-10-16T09:13:36;7.40;;;1.60;;
52272;SDS011;38227;50.942;4.016;2022-10-16T09:16:39;7.12;;;1.70;;
52272;SDS011;38227;50.942;4.016;2022-10-16T09:19:34;8.55;;;1.80;;
52272;SDS011;38227;50.942;4.016;2022-10-16T09:22:10;8.45;;;1.80;;
52272;SDS011;38227;50.942;4.016;2022-10-16T09:24:42;7.03;;;1.70;;
52272;SDS011;38227;50.942;4.016;2022-10-16T09:27:12;4.40;;;1.50;;
52272;SDS011;38227;50.942;4.016;2022-10-16T09:29:43;6.28;;;1.70;;
52272;SDS011;38227;50.942;4.016;2022-10-16T09:32:14;5.18;;;1.45;;
52272;SDS011;38227;50.942;4.016;2022-10-16T09:34:55;3.85;;;1.50;;
52272;SDS011;38227;50.942;4.016;2022-10-16T09:37:24;6.57;;;2.12;;
52272;SDS011;38227;50.942;4.016;2022-10-16T09:39:57;7.60;;;1.60;;
52272;SDS011;38227;50.942;4.016;2022-10-16T09:42:27;5.30;;;1.67;;
52272;SDS011;38227;50.942;4.016;2022-10-16T09:45:02;8.40;;;1.77;;
52272;SDS011;38227;50.942;4.016;2022-10-16T09:47:37;5.85;;;1.77;;
52272;SDS011;38227;50.942;4.016;2022-10-16T09:50:26;7.40;;;1.70;;
52272;SDS011;38227;50.942;4.016;2022-10-16T09:53:35;5.87;;;1.67;;
52272;SDS011;38227;50.942;4.016;2022-10-16T09:55:52;6.90;;;1.75;;
52272;SDS011;38227;50.942;4.016;2022-10-16T09:58:23;9.00;;;2.03;;
52272;SDS011;38227;50.942;4.016;2022-10-16T10:00:52;5.60;;;1.60;;
52272;SDS011;38227;50.942;4.016;2022-10-16T10:03:34;10.02;;;1.90;;
52272;SDS011;38227;50.942;4.016;2022-10-16T10:06:24;7.05;;;1.87;;
52272;SDS011;38227;50.942;4.016;2022-10-16T10:09:42;9.18;;;1.62;;
52272;SDS011;38227;50.942;4.016;2022-10-16T10:11:54;6.57;;;1.70;;
52272;SDS011;38227;50.942;4.016;2022-10-16T10:14:49;8.77;;;1.85;;
52272;SDS011;38227;50.942;4.016;2022-10-16T10:17:23;7.20;;;1.60;;
52272;SDS011;38227;50.942;4.016;2022-10-16T10:19:55;6.07;;;1.83;;
52272;SDS011;38227;50.942;4.016;2022-10-16T10:22:44;8.38;;;1.77;;
52272;SDS011;38227;50.942;4.016;2022-10-16T10:29:04;8.48;;;1.90;;
52272;SDS011;38227;50.942;4.016;2022-10-16T10:32:06;8.00;;;1.77;;
52272;SDS011;38227;50.942;4.016;2022-10-16T10:38:07;7.82;;;2.10;;
52272;SDS011;38227;50.942;4.016;2022-10-16T10:41:12;6.18;;;1.65;;
52272;SDS011;38227;50.942;4.016;2022-10-16T10:44:08;8.77;;;1.70;;
52272;SDS011;38227;50.942;4.016;2022-10-16T10:47:12;7.60;;;1.40;;
52272;SDS011;38227;50.942;4.016;2022-10-16T11:02:40;10.27;;;1.70;;
52272;SDS011;38227;50.942;4.016;2022-10-16T11:05:20;9.25;;;2.00;;
52272;SDS011;38227;50.942;4.016;2022-10-16T11:09:17;6.57;;;1.77;;
52272;SDS011;38227;50.942;4.016;2022-10-16T11:11:29;9.35;;;1.90;;
52272;SDS011;38227;50.942;4.016;2022-10-16T11:14:18;9.82;;;1.70;;
52272;SDS011;38227;50.942;4.016;2022-10-16T11:16:56;7.18;;;1.50;;
52272;SDS011;38227;50.942;4.016;2022-10-16T11:19:39;6.85;;;1.92;;
52272;SDS011;38227;50.942;4.016;2022-10-16T11:22:32;9.70;;;1.65;;
52272;SDS011;38227;50.942;4.016;2022-10-16T11:25:22;8.40;;;1.60;;
52272;SDS011;38227;50.942;4.016;2022-10-16T11:30:59;8.00;;;1.52;;
52272;SDS011;38227;50.942;4.016;2022-10-16T11:34:25;7.45;;;1.67;;
52272;SDS011;38227;50.942;4.016;2022-10-16T11:37:02;6.72;;;1.65;;
52272;SDS011;38227;50.942;4.016;2022-10-16T11:39:49;9.40;;;1.62;;
52272;SDS011;38227;50.942;4.016;2022-10-16T11:42:21;6.43;;;2.03;;
52272;SDS011;38227;50.942;4.016;2022-10-16T11:57:26;9.35;;;1.67;;
52272;SDS011;38227;50.942;4.016;2022-10-16T12:02:55;10.73;;;1.52;;
52272;SDS011;38227;50.942;4.016;2022-10-16T12:08:34;6.55;;;1.55;;
52272;SDS011;38227;50.942;4.016;2022-10-16T12:11:07;9.70;;;1.77;;
52272;SDS011;38227;50.942;4.016;2022-10-16T12:14:06;9.82;;;1.70;;
52272;SDS011;38227;50.942;4.016;2022-10-16T12:17:24;5.07;;;1.42;;
52272;SDS011;38227;50.942;4.016;2022-10-16T12:20:00;5.57;;;1.60;;
52272;SDS011;38227;50.942;4.016;2022-10-16T12:22:48;10.85;;;1.52;;
52272;SDS011;38227;50.942;4.016;2022-10-16T12:25:38;9.40;;;1.85;;
52272;SDS011;38227;50.942;4.016;2022-10-16T12:31:07;8.73;;;1.73;;
52272;SDS011;38227;50.942;4.016;2022-10-16T12:33:40;7.15;;;1.55;;
52272;SDS011;38227;50.942;4.016;2022-10-16T12:36:30;4.97;;;1.50;;
52272;SDS011;38227;50.942;4.016;2022-10-16T12:39:01;6.53;;;1.65;;
52272;SDS011;38227;50.942;4.016;2022-10-16T12:41:30;4.75;;;1.20;;
52272;SDS011;38227;50.942;4.016;2022-10-16T12:44:04;7.10;;;1.37;;
52272;SDS011;38227;50.942;4.016;2022-10-16T12:46:47;6.12;;;1.55;;
52272;SDS011;38227;50.942;4.016;2022-10-16T12:49:21;3.92;;;1.30;;
52272;SDS011;38227;50.942;4.016;2022-10-16T12:52:24;5.78;;;1.52;;
52272;SDS011;38227;50.942;4.016;2022-10-16T12:55:21;4.07;;;1.40;;
52272;SDS011;38227;50.942;4.016;2022-10-16T13:01:07;7.18;;;1.60;;
52272;SDS011;38227;50.942;4.016;2022-10-16T13:07:15;5.93;;;1.40;;
52272;SDS011;38227;50.942;4.016;2022-10-16T13:10:17;6.85;;;1.40;;
52272;SDS011;38227;50.942;4.016;2022-10-16T13:19:46;3.53;;;1.00;;
52272;SDS011;38227;50.942;4.016;2022-10-16T13:22:51;5.65;;;1.12;;
52272;SDS011;38227;50.942;4.016;2022-10-16T13:28:52;4.28;;;1.45;;
52272;SDS011;38227;50.942;4.016;2022-10-16T13:31:30;5.07;;;1.27;;
52272;SDS011;38227;50.942;4.016;2022-10-16T13:34:04;2.78;;;0.93;;
52272;SDS011;38227;50.942;4.016;2022-10-16T13:36:43;5.10;;;1.60;;
52272;SDS011;38227;50.942;4.016;2022-10-16T13:39:28;2.30;;;1.00;;
52272;SDS011;38227;50.942;4.016;2022-10-16T13:44:55;4.80;;;1.37;;
52272;SDS011;38227;50.942;4.016;2022-10-16T13:47:25;4.87;;;1.08;;
52272;SDS011;38227;50.942;4.016;2022-10-16T13:50:12;4.15;;;1.17;;
52272;SDS011;38227;50.942;4.016;2022-10-16T13:52:45;2.90;;;1.10;;
52272;SDS011;38227;50.942;4.016;2022-10-16T13:55:15;3.72;;;1.20;;
52272;SDS011;38227;50.942;4.016;2022-10-16T13:57:46;3.80;;;1.27;;
52272;SDS011;38227;50.942;4.016;2022-10-16T14:00:22;3.00;;;1.10;;
52272;SDS011;38227;50.942;4.016;2022-10-16T14:03:02;4.03;;;1.10;;
52272;SDS011;38227;50.942;4.016;2022-10-16T14:05:47;4.60;;;1.27;;
52272;SDS011;38227;50.942;4.016;2022-10-16T14:08:21;4.07;;;1.00;;
52272;SDS011;38227;50.942;4.016;2022-10-16T14:10:55;3.80;;;1.10;;
52272;SDS011;38227;50.942;4.016;2022-10-16T14:16:18;4.28;;;1.23;;
52272;SDS011;38227;50.942;4.016;2022-10-16T14:19:19;3.85;;;1.15;;
52272;SDS011;38227;50.942;4.016;2022-10-16T14:21:54;4.35;;;1.10;;
52272;SDS011;38227;50.942;4.016;2022-10-16T14:24:31;4.25;;;1.20;;
52272;SDS011;38227;50.942;4.016;2022-10-16T14:27:28;3.90;;;1.00;;
52272;SDS011;38227;50.942;4.016;2022-10-16T14:30:29;6.18;;;1.33;;
52272;SDS011;38227;50.942;4.016;2022-10-16T14:33:00;3.47;;;1.12;;
52272;SDS011;38227;50.942;4.016;2022-10-16T14:35:37;4.60;;;1.35;;
52272;SDS011;38227;50.942;4.016;2022-10-16T14:38:06;4.00;;;1.20;;
52272;SDS011;38227;50.942;4.016;2022-10-16T14:40:48;2.83;;;0.90;;
52272;SDS011;38227;50.942;4.016;2022-10-16T14:43:21;5.03;;;1.10;;
52272;SDS011;38227;50.942;4.016;2022-10-16T14:45:57;6.60;;;1.20;;
52272;SDS011;38227;50.942;4.016;2022-10-16T14:48:27;3.85;;;1.20;;
52272;SDS011;38227;50.942;4.016;2022-10-16T14:50:58;8.43;;;1.60;;
52272;SDS011;38227;50.942;4.016;2022-10-16T14:53:28;4.65;;;1.48;;
52272;SDS011;38227;50.942;4.016;2022-10-16T14:56:05;4.32;;;1.30;;
52272;SDS011;38227;50.942;4.016;2022-10-16T14:58:44;6.60;;;2.12;;
52272;SDS011;38227;50.942;4.016;2022-10-16T15:01:21;3.90;;;1.60;;
52272;SDS011;38227;50.942;4.016;2022-10-16T15:03:59;5.80;;;1.60;;
52272;SDS011;38227;50.942;4.016;2022-10-16T15:06:29;5.57;;;1.80;;
52272;SDS011;38227;50.942;4.016;2022-10-16T15:09:07;4.32;;;1.37;;
52272;SDS011;38227;50.942;4.016;2022-10-16T15:11:39;5.05;;;1.42;;
52272;SDS011;38227;50.942;4.016;2022-10-16T15:14:13;3.60;;;1.70;;
52272;SDS011;38227;50.942;4.016;2022-10-16T15:16:52;3.17;;;1.50;;
52272;SDS011;38227;50.942;4.016;2022-10-16T15:19:23;4.85;;;1.45;;
52272;SDS011;38227;50.942;4.016;2022-10-16T15:21:53;5.00;;;1.80;;
52272;SDS011;38227;50.942;4.016;2022-10-16T15:24:24;5.65;;;1.35;;
52272;SDS011;38227;50.942;4.016;2022-10-16T15:26:56;4.37;;;1.60;;
52272;SDS011;38227;50.942;4.016;2022-10-16T15:29:27;12.00;;;2.47;;
52272;SDS011;38227;50.942;4.016;2022-10-16T15:32:05;7.55;;;2.15;;
52272;SDS011;38227;50.942;4.016;2022-10-16T15:34:37;6.10;;;1.70;;
52272;SDS011;38227;50.942;4.016;2022-10-16T15:37:14;5.35;;;1.80;;
52272;SDS011;38227;50.942;4.016;2022-10-16T15:39:46;6.37;;;1.73;;
52272;SDS011;38227;50.942;4.016;2022-10-16T15:42:17;6.57;;;1.85;;
52272;SDS011;38227;50.942;4.016;2022-10-16T15:44:50;3.45;;;1.95;;
52272;SDS011;38227;50.942;4.016;2022-10-16T15:47:21;4.45;;;1.80;;
52272;SDS011;38227;50.942;4.016;2022-10-16T15:49:52;5.80;;;2.20;;
52272;SDS011;38227;50.942;4.016;2022-10-16T15:52:22;4.95;;;2.12;;
52272;SDS011;38227;50.942;4.016;2022-10-16T15:54:54;5.65;;;2.10;;
52272;SDS011;38227;50.942;4.016;2022-10-16T15:57:24;3.60;;;1.90;;
52272;SDS011;38227;50.942;4.016;2022-10-16T15:59:56;8.52;;;2.67;;
52272;SDS011;38227;50.942;4.016;2022-10-16T16:02:25;4.68;;;2.30;;
52272;SDS011;38227;50.942;4.016;2022-10-16T16:04:59;6.40;;;2.40;;
52272;SDS011;38227;50.942;4.016;2022-10-16T16:07:37;6.93;;;2.70;;
52272;SDS011;38227;50.942;4.016;2022-10-16T16:10:07;6.35;;;2.75;;
52272;SDS011;38227;50.942;4.016;2022-10-16T16:12:37;6.97;;;2.50;;
52272;SDS011;38227;50.942;4.016;2022-10-16T16:15:14;7.60;;;2.45;;
52272;SDS011;38227;50.942;4.016;2022-10-16T16:17:53;7.37;;;2.40;;
52272;SDS011;38227;50.942;4.016;2022-10-16T16:20:31;8.25;;;2.90;;
52272;SDS011;38227;50.942;4.016;2022-10-16T16:23:00;5.00;;;2.20;;
52272;SDS011;38227;50.942;4.016;2022-10-16T16:25:39;7.55;;;2.35;;
52272;SDS011;38227;50.942;4.016;2022-10-16T16:28:08;8.55;;;2.40;;
52272;SDS011;38227;50.942;4.016;2022-10-16T16:30:40;5.45;;;2.90;;
52272;SDS011;38227;50.942;4.016;2022-10-16T16:33:13;7.30;;;3.15;;
52272;SDS011;38227;50.942;4.016;2022-10-16T16:35:50;13.27;;;3.55;;
52272;SDS011;38227;50.942;4.016;2022-10-16T16:38:24;8.77;;;3.50;;
52272;SDS011;38227;50.942;4.016;2022-10-16T16:41:16;8.30;;;2.92;;
52272;SDS011;38227;50.942;4.016;2022-10-16T16:43:49;7.03;;;3.17;;
52272;SDS011;38227;50.942;4.016;2022-10-16T16:46:22;9.63;;;3.17;;
52272;SDS011;38227;50.942;4.016;2022-10-16T16:49:01;7.40;;;2.92;;
52272;SDS011;38227;50.942;4.016;2022-10-16T16:51:32;7.22;;;2.85;;
52272;SDS011;38227;50.942;4.016;2022-10-16T16:54:05;6.50;;;2.75;;
52272;SDS011;38227;50.942;4.016;2022-10-16T16:56:38;7.12;;;2.60;;
52272;SDS011;38227;50.942;4.016;2022-10-16T16:59:11;7.18;;;3.75;;
52272;SDS011;38227;50.942;4.016;2022-10-16T17:01:46;10.47;;;3.73;;
52272;SDS011;38227;50.942;4.016;2022-10-16T17:04:18;8.98;;;3.45;;
52272;SDS011;38227;50.942;4.016;2022-10-16T17:06:47;10.18;;;3.60;;
52272;SDS011;38227;50.942;4.016;2022-10-16T17:09:18;10.95;;;3.15;;
52272;SDS011;38227;50.942;4.016;2022-10-16T17:11:50;7.10;;;2.97;;
52272;SDS011;38227;50.942;4.016;2022-10-16T17:14:29;7.30;;;3.17;;
52272;SDS011;38227;50.942;4.016;2022-10-16T17:17:00;10.65;;;2.80;;
52272;SDS011;38227;50.942;4.016;2022-10-16T17:19:31;8.60;;;2.53;;